Time;durP1;ratioP1;P1;durP2;ratioP2;P2;SDS_P1;SDS_P2;PMS_P1;PMS_P2;Temp;Humidity;BMP_temperature;BMP_pressure;BME280_temperature;BME280_humidity;BME280_pressure;Samples;Min_cycle;Max_cycle;Signal;HPM_P1;HPM_P2
2022/09/13 00:01:32;;;;;;;3.92;1.70;;;;;;;20.86;95.75;100293.91;5010178;28;20038;-89
2022/09/13 00:03:58;;;;;;;4.60;2.40;;;;;;;20.77;96.48;100292.63;5011380;28;20038;-88
2022/09/13 00:06:23;;;;;;;5.28;1.85;;;;;;;20.78;96.22;100286.16;5004514;28;20077;-89
2022/09/13 00:08:49;;;;;;;6.15;1.90;;;;;;;20.73;96.78;100296.00;5005962;28;20092;-88
2022/09/13 00:11:17;;;;;;;4.10;1.80;;;;;;;20.61;97.27;100294.13;5005322;28;20026;-88
2022/09/13 00:13:43;;;;;;;10.05;2.30;;;;;;;20.51;97.58;100293.91;5007822;28;20042;-88
2022/09/13 00:16:13;;;;;;;4.47;2.00;;;;;;;20.51;97.56;100298.47;5017091;28;20054;-89
2022/09/13 00:18:39;;;;;;;9.57;2.25;;;;;;;20.53;97.59;100291.78;5021682;28;20053;-88
2022/09/13 00:21:13;;;;;;;7.40;2.20;;;;;;;20.54;97.82;100292.59;5041612;28;20489;-86
2022/09/13 00:23:40;;;;;;;3.15;2.00;;;;;;;20.44;98.03;100292.34;5014312;28;20038;-87
2022/09/13 00:26:15;;;;;;;3.53;1.88;;;;;;;20.34;99.24;100286.72;5015660;28;20042;-85
2022/09/13 00:28:41;;;;;;;6.95;2.35;;;;;;;20.34;98.38;100290.25;5014068;28;20433;-89
2022/09/13 00:31:08;;;;;;;5.80;1.92;;;;;;;20.35;98.29;100291.84;5014831;28;20092;-89
2022/09/13 00:33:34;;;;;;;2.80;1.70;;;;;;;20.35;99.01;100299.94;5015617;28;20096;-87
2022/09/13 00:36:05;;;;;;;4.18;2.08;;;;;;;20.36;98.24;100288.13;5015533;28;20033;-88
2022/09/13 00:38:33;;;;;;;4.22;1.73;;;;;;;20.25;99.27;100288.09;5015173;28;20075;-88
2022/09/13 00:41:05;;;;;;;5.93;1.75;;;;;;;20.31;99.35;100292.56;5015404;28;20117;-88
2022/09/13 00:43:44;;;;;;;6.43;1.77;;;;;;;20.32;99.19;100286.94;5015919;28;20141;-87
2022/09/13 00:46:15;;;;;;;5.55;2.22;;;;;;;20.40;98.88;100288.47;5016184;28;20034;-89
2022/09/13 00:49:21;;;;;;;12.32;2.70;;;;;;;20.44;97.98;100290.50;5035953;28;20028;-89
2022/09/13 00:51:55;;;;;;;6.05;2.78;;;;;;;20.42;98.84;100289.06;5038754;28;20109;-89
2022/09/13 00:54:26;;;;;;;5.53;3.10;;;;;;;20.35;99.37;100294.53;5038518;28;20033;-89
2022/09/13 00:56:57;;;;;;;7.03;3.00;;;;;;;20.34;99.97;100292.09;5019297;28;20118;-90
2022/09/13 00:59:34;;;;;;;9.55;3.53;;;;;;;20.34;99.47;100284.84;5014317;28;20038;-88
2022/09/13 01:02:04;;;;;;;8.13;3.05;;;;;;;20.41;99.02;100282.06;4997312;28;20120;-87
2022/09/13 01:04:32;;;;;;;5.63;3.40;;;;;;;20.48;98.25;100282.78;5013598;28;20042;-88
2022/09/13 01:07:03;;;;;;;8.70;3.15;;;;;;;20.59;97.84;100287.31;5014852;28;20038;-88
2022/09/13 01:09:32;;;;;;;11.02;3.28;;;;;;;20.44;98.27;100286.97;5015138;28;20462;-87
2022/09/13 01:12:07;;;;;;;5.97;3.10;;;;;;;20.35;99.23;100288.38;5013732;28;20026;-87
2022/09/13 01:14:33;;;;;;;10.48;3.17;;;;;;;20.45;99.70;100288.63;5014874;28;20049;-88
2022/09/13 01:16:59;;;;;;;6.30;3.40;;;;;;;20.59;98.72;100287.31;4996999;28;20041;-88
2022/09/13 01:19:25;;;;;;;7.70;3.50;;;;;;;20.76;97.19;100288.28;5014596;28;20034;-89
2022/09/13 01:22:26;;;;;;;8.02;3.08;;;;;;;20.85;96.27;100284.16;5015149;28;20034;-88
2022/09/13 01:25:06;;;;;;;4.43;3.42;;;;;;;21.01;95.12;100282.66;5014188;28;20033;-87
2022/09/13 01:27:59;;;;;;;12.70;3.45;;;;;;;20.60;97.02;100275.50;5013917;28;20450;-87
2022/09/13 01:30:31;;;;;;;;;;;;;;;20.18;100.00;100279.28;5014992;28;20034;-88
2022/09/13 01:33:09;;;;;;;9.77;4.38;;;;;;;19.94;100.00;100284.59;5014440;28;19925;-88
2022/09/13 01:35:42;;;;;;;16.65;4.68;;;;;;;19.90;100.00;100269.97;5014958;28;20184;-88
2022/09/13 01:38:10;;;;;;;8.13;4.28;;;;;;;19.79;100.00;100284.16;5025362;28;20037;-89
2022/09/13 01:40:52;;;;;;;6.90;4.13;;;;;;;19.77;100.00;100285.47;5019600;28;20045;-88
2022/09/13 01:43:36;;;;;;;8.35;4.65;;;;;;;19.72;100.00;100288.03;5014590;28;20041;-88
2022/09/13 01:46:18;;;;;;;12.15;4.53;;;;;;;19.60;100.00;100291.47;5013305;28;20042;-90
2022/09/13 01:49:03;;;;;;;6.45;5.03;;;;;;;19.65;100.00;100287.28;5014395;28;20497;-88
2022/09/13 01:51:37;;;;;;;10.77;5.03;;;;;;;19.72;100.00;100283.44;5013903;28;20046;-87
2022/09/13 01:54:31;;;;;;;9.75;4.47;;;;;;;19.72;100.00;100288.81;5014590;28;20034;-88
2022/09/13 01:57:05;;;;;;;22.13;5.00;;;;;;;19.64;100.00;100286.47;5016830;28;20054;-87
2022/09/13 01:59:53;;;;;;;9.52;4.50;;;;;;;19.57;100.00;100285.72;5015515;28;20030;-90
2022/09/13 02:02:30;;;;;;;14.25;4.70;;;;;;;19.53;100.00;100284.53;5015472;28;20076;-90
2022/09/13 02:05:07;;;;;;;7.63;3.92;;;;;;;19.45;100.00;100272.22;5013491;28;20103;-90
2022/09/13 02:07:41;;;;;;;7.15;4.38;;;;;;;19.58;100.00;100276.63;5014615;28;20041;-89
2022/09/13 02:10:15;;;;;;;9.15;4.35;;;;;;;19.58;100.00;100279.31;5014817;28;20042;-90
2022/09/13 02:12:42;;;;;;;7.88;3.97;;;;;;;19.52;100.00;100274.84;5013322;28;20128;-89
2022/09/13 02:15:16;;;;;;;6.95;4.20;;;;;;;19.41;100.00;100275.59;5013416;28;20095;-88
2022/09/13 02:17:49;;;;;;;8.10;3.80;;;;;;;19.34;100.00;100274.81;5012227;28;20042;-86
2022/09/13 02:20:25;;;;;;;9.30;4.00;;;;;;;19.31;100.00;100269.88;5013319;28;20369;-86
2022/09/13 02:22:55;;;;;;;10.20;3.85;;;;;;;19.25;100.00;100265.41;5012248;28;20065;-88
2022/09/13 02:25:24;;;;;;;6.40;3.78;;;;;;;19.49;100.00;100267.19;5012058;28;20050;-86
2022/09/13 02:27:56;;;;;;;6.30;3.55;;;;;;;19.36;100.00;100267.31;5013344;28;20030;-90
2022/09/13 02:30:22;;;;;;;7.20;3.80;;;;;;;19.23;100.00;100275.53;5012373;28;20042;-87
2022/09/13 02:32:55;;;;;;;7.90;3.40;;;;;;;19.29;100.00;100272.78;5012013;28;20041;-88
2022/09/13 02:35:29;;;;;;;6.20;3.10;;;;;;;19.35;100.00;100271.09;5013538;28;20409;-88
2022/09/13 02:38:02;;;;;;;7.20;3.30;;;;;;;19.35;100.00;100276.47;5013417;28;20445;-87
2022/09/13 02:40:36;;;;;;;5.13;3.13;;;;;;;19.24;100.00;100274.50;4995989;28;20519;-87
2022/09/13 02:43:09;;;;;;;4.90;3.05;;;;;;;19.25;100.00;100274.31;5014536;28;20604;-89
2022/09/13 02:45:45;;;;;;;6.47;3.10;;;;;;;19.26;100.00;100265.19;5013052;28;20113;-89
2022/09/13 02:48:25;;;;;;;6.38;3.03;;;;;;;19.27;100.00;100272.19;4996107;28;20034;-87
2022/09/13 02:50:57;;;;;;;6.68;3.15;;;;;;;19.14;100.00;100269.66;5012082;28;20045;-87
2022/09/13 02:53:25;;;;;;;3.88;2.75;;;;;;;19.09;100.00;100267.63;5013377;28;20141;-88
2022/09/13 02:56:30;;;;;;;6.63;2.78;;;;;;;19.25;100.00;100260.03;5013481;28;20038;-87
2022/09/13 03:02:21;;;;;;;;;;;;;;;19.19;100.00;100269.00;5017890;28;20040;-88
2022/09/13 03:04:50;;;;;;;6.10;2.45;;;;;;;19.12;100.00;100262.88;5021605;28;19948;-88
2022/09/13 03:07:15;;;;;;;9.00;2.58;;;;;;;19.02;100.00;100263.41;5026366;28;20026;-88
2022/09/13 03:10:04;;;;;;;8.68;3.13;;;;;;;18.93;100.00;100262.84;5038408;28;20018;-89
2022/09/13 03:12:57;;;;;;;7.85;2.78;;;;;;;19.03;100.00;100256.97;5040569;28;20021;-88
2022/09/13 03:15:42;;;;;;;6.70;2.97;;;;;;;19.17;100.00;100250.41;5041065;28;20048;-91
2022/09/13 03:21:30;;;;;;;5.57;2.90;;;;;;;18.94;100.00;100259.13;5040955;28;20121;-89
2022/09/13 03:24:23;;;;;;;6.15;2.80;;;;;;;18.91;100.00;100259.59;5040476;28;20022;-89
2022/09/13 03:27:15;;;;;;;9.05;2.75;;;;;;;19.14;100.00;100252.72;5037631;28;20046;-88
2022/09/13 03:30:04;;;;;;;6.85;2.80;;;;;;;19.07;100.00;100261.69;5040734;28;20044;-87
2022/09/13 03:32:51;;;;;;;6.43;2.92;;;;;;;18.80;100.00;100264.84;5040555;28;20033;-88
2022/09/13 03:35:43;;;;;;;6.68;3.00;;;;;;;18.68;100.00;100270.13;5040176;28;20029;-87
2022/09/13 03:42:04;;;;;;;4.47;2.38;;;;;;;18.71;100.00;100264.31;5040554;28;20084;-87
2022/09/13 03:44:31;;;;;;;4.97;2.10;;;;;;;18.53;100.00;100275.00;5040375;28;20042;-88
2022/09/13 03:47:02;;;;;;;4.20;2.38;;;;;;;18.48;100.00;100272.16;5023477;28;20500;-87
2022/09/13 03:49:29;;;;;;;8.95;2.20;;;;;;;18.44;100.00;100276.31;5016591;28;20444;-90
2022/09/13 03:51:57;;;;;;;6.00;2.75;;;;;;;18.40;100.00;100278.59;5017113;28;20037;-87
2022/09/13 03:54:30;;;;;;;15.88;2.58;;;;;;;18.34;100.00;100278.66;5018279;28;20061;-89
2022/09/13 03:57:12;;;;;;;;;;;;;;;18.27;100.00;100273.34;5016668;28;20064;-88
2022/09/13 03:59:45;;;;;;;6.40;2.67;;;;;;;18.28;100.00;100282.22;5017807;28;19952;-87
2022/09/13 04:02:15;;;;;;;4.55;2.58;;;;;;;18.26;100.00;100273.56;5016241;28;20057;-87
2022/09/13 04:04:42;;;;;;;6.63;2.20;;;;;;;18.27;100.00;100264.47;5017686;28;20037;-85
2022/09/13 04:09:33;;;;;;;5.38;2.45;;;;;;;18.34;100.00;100262.56;5013019;28;20045;-89
2022/09/13 04:11:58;;;;;;;4.45;2.30;;;;;;;18.52;100.00;100268.03;5014458;28;20096;-86
2022/09/13 04:14:25;;;;;;;8.70;2.53;;;;;;;18.70;100.00;100261.84;5031462;28;20481;-87
2022/09/13 04:16:55;;;;;;;6.93;2.60;;;;;;;18.82;100.00;100265.47;5021131;28;20037;-86
2022/09/13 04:19:23;;;;;;;5.20;2.60;;;;;;;18.63;100.00;100261.13;5037896;28;20022;-83
2022/09/13 04:21:51;;;;;;;5.25;2.30;;;;;;;18.50;100.00;100256.66;5020020;28;20049;-89
2022/09/13 04:24:17;;;;;;;7.72;2.63;;;;;;;18.47;100.00;100254.41;5014477;28;20398;-88
2022/09/13 04:26:44;;;;;;;8.25;2.40;;;;;;;18.33;100.00;100255.53;4997346;28;20049;-86
2022/09/13 04:29:10;;;;;;;5.20;2.63;;;;;;;18.42;100.00;100252.38;5014301;28;20489;-88
2022/09/13 04:31:37;;;;;;;6.70;2.60;;;;;;;18.63;100.00;100253.06;5015771;28;20030;-91
2022/09/13 04:34:03;;;;;;;11.18;2.72;;;;;;;18.51;100.00;100258.31;5015528;28;20109;-89
2022/09/13 04:36:30;;;;;;;4.82;2.47;;;;;;;18.50;100.00;100264.72;5017017;28;20034;-88
2022/09/13 04:38:56;;;;;;;5.60;2.50;;;;;;;18.64;100.00;100258.19;5014806;28;20046;-90
2022/09/13 04:41:21;;;;;;;3.92;2.60;;;;;;;18.80;100.00;100264.84;5017237;28;20394;-89
2022/09/13 04:43:50;;;;;;;8.63;3.00;;;;;;;18.85;100.00;100265.03;5016442;28;20038;-87
2022/09/13 04:46:16;;;;;;;9.40;2.90;;;;;;;18.85;100.00;100270.41;5013812;28;20034;-90
2022/09/13 04:48:42;;;;;;;9.18;3.20;;;;;;;18.74;100.00;100279.16;5032882;28;20069;-87
2022/09/13 04:51:08;;;;;;;6.97;2.88;;;;;;;18.83;100.00;100273.28;5015951;28;20029;-86
2022/09/13 04:53:36;;;;;;;14.15;3.85;;;;;;;18.60;100.00;100275.78;5018219;28;20041;-91
2022/09/13 04:56:04;;;;;;;7.63;3.50;;;;;;;18.63;100.00;100287.97;4998452;28;20523;-88
2022/09/13 04:58:30;;;;;;;9.45;3.15;;;;;;;18.60;100.00;100281.16;5015906;28;20050;-89
2022/09/13 05:01:00;;;;;;;12.07;3.58;;;;;;;18.68;100.00;100285.44;5031739;28;20061;-88
2022/09/13 05:03:29;;;;;;;9.05;3.75;;;;;;;18.70;100.00;100289.53;5016132;28;20040;-88
2022/09/13 05:06:09;;;;;;;9.70;3.30;;;;;;;18.81;100.00;100286.13;5008362;28;20374;-84
2022/09/13 05:08:35;;;;;;;6.53;2.70;;;;;;;18.97;100.00;100290.91;5011527;28;20126;-89
2022/09/13 05:11:02;;;;;;;6.50;2.65;;;;;;;19.25;100.00;100292.28;5017155;28;20069;-90
2022/09/13 05:13:28;;;;;;;9.93;3.50;;;;;;;19.02;100.00;100292.94;5016354;28;20117;-91
2022/09/13 05:16:03;;;;;;;10.70;3.55;;;;;;;18.90;100.00;100295.53;5018671;28;20038;-88
2022/09/13 05:18:31;;;;;;;10.30;3.60;;;;;;;18.89;100.00;100282.34;5019709;28;20519;-86
2022/09/13 05:20:58;;;;;;;13.13;3.10;;;;;;;19.18;100.00;100275.41;5015423;28;20037;-86
2022/09/13 05:23:25;;;;;;;11.07;3.42;;;;;;;19.46;100.00;100275.72;5015632;28;20466;-88
2022/09/13 05:26:01;;;;;;;9.02;2.90;;;;;;;19.93;100.00;100272.19;4993603;28;20037;-86
2022/09/13 05:28:33;;;;;;;12.52;2.90;;;;;;;20.11;100.00;100277.53;5012927;28;20100;-86
2022/09/13 05:31:11;;;;;;;9.82;2.95;;;;;;;20.63;100.00;100275.03;5022349;28;20033;-87
2022/09/13 05:33:37;;;;;;;8.10;2.83;;;;;;;21.16;96.14;100282.19;5009231;28;20038;-89
2022/09/13 05:36:05;;;;;;;13.88;3.22;;;;;;;20.61;99.68;100277.16;4995654;28;20038;-89
2022/09/13 05:38:31;;;;;;;14.02;3.13;;;;;;;21.00;95.66;100278.31;5014344;28;20034;-86
2022/09/13 05:41:00;;;;;;;14.57;2.75;;;;;;;20.89;96.25;100277.28;5005810;28;20035;-88
2022/09/13 05:43:28;;;;;;;13.77;2.78;;;;;;;20.99;97.05;100282.06;4995179;28;20160;-89
2022/09/13 05:46:05;;;;;;;14.48;3.15;;;;;;;21.73;91.61;100286.63;4994653;28;20551;-90
2022/09/13 05:48:34;;;;;;;17.48;3.90;;;;;;;22.41;84.71;100296.50;4994068;28;20392;-86
2022/09/13 05:51:24;;;;;;;10.32;2.25;;;;;;;21.81;88.12;100296.22;4993881;28;20045;-83
2022/09/13 05:53:51;;;;;;;10.77;2.92;;;;;;;21.75;90.17;100284.47;4993915;28;20175;-82
2022/09/13 05:56:26;;;;;;;7.75;2.95;;;;;;;21.63;89.93;100289.13;4993899;28;20061;-87
2022/09/13 05:58:52;;;;;;;12.65;2.78;;;;;;;22.00;86.76;100293.09;4993697;28;20109;-87
2022/09/13 06:01:21;;;;;;;15.15;3.30;;;;;;;22.74;83.37;100299.22;4994034;28;20043;-85
2022/09/13 06:03:51;;;;;;;8.57;2.65;;;;;;;22.67;82.38;100303.19;4992819;28;20035;-85
2022/09/13 06:06:18;;;;;;;8.50;2.88;;;;;;;22.89;81.16;100296.75;4992870;28;20045;-88
2022/09/13 06:08:44;;;;;;;9.20;2.70;;;;;;;23.50;76.06;100286.78;4993249;28;20042;-87
2022/09/13 06:11:11;;;;;;;13.05;2.60;;;;;;;22.86;80.10;100297.25;4994062;28;20377;-90
2022/09/13 06:13:37;;;;;;;9.18;2.67;;;;;;;23.06;79.84;100307.53;4993766;28;20704;-88
2022/09/13 06:16:06;;;;;;;10.13;2.70;;;;;;;23.08;78.31;100311.63;4993504;28;20042;-86
2022/09/13 06:18:33;;;;;;;6.47;2.95;;;;;;;23.26;78.58;100301.59;4992309;28;20113;-88
2022/09/13 06:21:01;;;;;;;9.10;2.60;;;;;;;24.00;72.88;100300.06;4993639;28;20038;-87
2022/09/13 06:23:28;;;;;;;13.70;2.28;;;;;;;23.78;76.30;100294.69;4992643;28;20066;-86
2022/09/13 06:26:02;;;;;;;8.00;2.53;;;;;;;24.26;71.01;100298.47;4993273;28;20041;-87
2022/09/13 06:28:27;;;;;;;9.35;2.10;;;;;;;24.00;73.80;100292.75;4993517;28;20035;-85
2022/09/13 06:31:02;;;;;;;14.95;2.50;;;;;;;25.11;68.38;100301.84;4996894;28;20102;-87
2022/09/13 06:33:28;;;;;;;6.50;2.10;;;;;;;25.67;65.01;100312.97;4997255;28;20035;-88
2022/09/13 06:35:53;;;;;;;13.77;2.30;;;;;;;24.63;70.32;100305.53;4992665;28;20031;-85
2022/09/13 06:38:19;;;;;;;8.98;2.08;;;;;;;26.17;64.20;100302.28;4993661;28;20061;-85
2022/09/13 06:40:45;;;;;;;6.78;2.03;;;;;;;26.92;59.31;100303.34;4993436;28;20031;-89
2022/09/13 06:43:10;;;;;;;4.65;1.75;;;;;;;27.01;60.23;100298.97;4994488;28;20038;-87
2022/09/13 06:45:36;;;;;;;15.85;2.15;;;;;;;27.05;58.86;100313.66;4997972;28;20038;-88
2022/09/13 06:48:02;;;;;;;10.27;1.80;;;;;;;27.19;58.30;100303.84;4997894;28;20049;-90
2022/09/13 06:50:31;;;;;;;9.50;1.90;;;;;;;26.01;62.34;100287.00;4984279;28;20022;-93
2022/09/13 06:52:56;;;;;;;10.40;2.13;;;;;;;25.75;64.83;100277.16;5001993;28;20030;-87
2022/09/13 06:55:22;;;;;;;12.45;1.83;;;;;;;26.14;62.13;100274.78;4995794;28;20437;-89
2022/09/13 06:57:47;;;;;;;10.00;2.17;;;;;;;25.67;64.97;100275.78;4989104;28;20072;-88
2022/09/13 07:00:14;;;;;;;8.82;1.70;;;;;;;25.95;63.13;100260.91;4997737;28;20541;-91
2022/09/13 07:02:39;;;;;;;8.18;1.85;;;;;;;25.50;65.40;100258.06;4997435;28;20030;-90
2022/09/13 07:05:05;;;;;;;12.23;2.20;;;;;;;25.21;66.14;100260.38;4996875;28;20039;-88
2022/09/13 07:07:31;;;;;;;10.95;2.05;;;;;;;25.79;64.60;100256.53;4996643;28;20069;-89
2022/09/13 07:09:56;;;;;;;9.32;2.00;;;;;;;26.00;62.65;100257.38;4996154;28;20466;-90
2022/09/13 07:12:22;;;;;;;10.25;2.05;;;;;;;25.82;64.31;100250.56;4996548;28;20034;-86
2022/09/13 07:14:47;;;;;;;6.15;2.00;;;;;;;26.49;60.92;100252.25;4996958;28;20052;-89
2022/09/13 07:17:13;;;;;;;6.55;1.80;;;;;;;26.35;61.79;100254.69;4997214;28;20478;-89
2022/09/13 07:19:39;;;;;;;5.63;1.92;;;;;;;26.63;58.85;100264.22;4996573;28;20042;-88
2022/09/13 07:22:05;;;;;;;4.80;1.95;;;;;;;26.73;58.59;100277.78;5007794;28;20030;-89
2022/09/13 07:24:30;;;;;;;10.93;1.70;;;;;;;27.22;57.02;100276.06;5015675;28;20492;-91
2022/09/13 07:26:57;;;;;;;5.72;1.63;;;;;;;27.62;55.62;100290.63;5021926;28;20038;-88
2022/09/13 07:29:23;;;;;;;10.02;2.17;;;;;;;27.54;54.53;100291.22;5022331;28;20035;-89
2022/09/13 07:31:53;;;;;;;6.18;1.98;;;;;;;27.55;55.22;100290.13;5028634;28;20343;-89
2022/09/13 07:34:23;;;;;;;11.30;2.20;;;;;;;27.72;54.84;100290.56;5033761;28;20042;-90
2022/09/13 07:36:51;;;;;;;11.07;2.22;;;;;;;27.81;55.81;100280.72;5005572;28;20077;-89
2022/09/13 07:39:17;;;;;;;10.73;2.50;;;;;;;27.63;53.78;100284.09;5016696;28;20064;-91
2022/09/13 07:41:45;;;;;;;13.70;2.70;;;;;;;28.28;52.57;100277.44;5017978;28;20033;-89
2022/09/13 07:44:12;;;;;;;16.88;3.70;;;;;;;28.52;49.93;100272.06;5017616;28;20038;-90
2022/09/13 07:46:42;;;;;;;16.70;4.22;;;;;;;29.00;47.71;100268.31;5016294;28;20041;-89
2022/09/13 07:49:10;;;;;;;8.10;3.30;;;;;;;28.66;48.44;100278.50;5016245;28;20400;-89
2022/09/13 07:51:38;;;;;;;9.23;2.90;;;;;;;29.06;47.43;100280.81;5016535;28;20041;-93
2022/09/13 07:54:08;;;;;;;10.57;3.47;;;;;;;28.54;48.60;100286.19;5016219;28;20511;-90
2022/09/13 07:56:36;;;;;;;14.85;3.88;;;;;;;28.86;47.83;100297.41;5011489;28;20041;-90
2022/09/13 07:59:05;;;;;;;13.20;3.30;;;;;;;29.64;47.26;100306.06;5014480;28;20113;-86
2022/09/13 08:01:41;;;;;;;7.47;2.60;;;;;;;29.85;46.32;100305.84;5013376;28;20589;-88
2022/09/13 08:04:09;;;;;;;9.55;3.00;;;;;;;29.47;46.90;100299.47;5011563;28;20552;-87
2022/09/13 08:06:36;;;;;;;12.25;3.97;;;;;;;29.55;46.76;100307.03;5014075;28;20026;-87
2022/09/13 08:09:04;;;;;;;13.82;3.97;;;;;;;29.65;46.34;100306.91;5012273;28;20473;-85
2022/09/13 08:11:37;;;;;;;12.95;3.40;;;;;;;29.44;46.76;100302.78;5010893;28;20107;-88
2022/09/13 08:14:08;;;;;;;10.18;3.58;;;;;;;29.18;46.93;100308.53;5013266;28;20489;-86
2022/09/13 08:16:33;;;;;;;9.63;3.35;;;;;;;28.97;48.06;100307.09;5015500;28;20037;-89
2022/09/13 08:19:02;;;;;;;8.23;3.25;;;;;;;29.62;46.67;100315.69;5020887;28;20037;-84
2022/09/13 08:21:33;;;;;;;15.68;3.90;;;;;;;29.85;45.48;100317.59;5013971;28;20037;-87
2022/09/13 08:23:59;;;;;;;10.75;3.90;;;;;;;29.95;45.37;100316.63;5012828;28;20036;-86
2022/09/13 08:26:27;;;;;;;10.38;4.43;;;;;;;30.42;43.71;100321.13;5012661;28;20026;-87
2022/09/13 08:28:58;;;;;;;12.10;5.43;;;;;;;30.53;42.65;100328.06;5011951;28;20031;-84
2022/09/13 08:31:24;;;;;;;10.13;5.27;;;;;;;30.84;42.39;100339.28;5012443;28;20503;-86
2022/09/13 08:33:50;;;;;;;10.77;4.55;;;;;;;30.38;42.74;100334.56;5012180;28;20651;-86
2022/09/13 08:36:19;;;;;;;19.20;4.78;;;;;;;30.70;41.98;100337.34;5011844;28;20113;-85
2022/09/13 08:38:47;;;;;;;14.63;5.10;;;;;;;30.72;41.65;100337.06;5008249;28;20448;-84
2022/09/13 08:41:26;;;;;;;12.52;4.28;;;;;;;31.75;40.12;100349.38;5008693;28;20069;-83
2022/09/13 08:44:02;;;;;;;12.25;3.83;;;;;;;31.82;40.01;100352.47;5008414;28;20045;-86
2022/09/13 08:46:43;;;;;;;12.77;3.83;;;;;;;31.58;38.55;100354.66;5003966;28;20058;-84
2022/09/13 08:49:21;;;;;;;11.98;3.88;;;;;;;31.31;38.84;100362.84;5003228;28;20033;-86
2022/09/13 08:51:56;;;;;;;9.85;4.35;;;;;;;30.85;39.57;100362.81;5006858;28;20041;-86
2022/09/13 08:54:22;;;;;;;9.32;3.30;;;;;;;31.24;38.99;100366.78;5010012;28;20038;-86
2022/09/13 08:56:59;;;;;;;13.80;3.00;;;;;;;31.24;37.99;100365.97;5008888;28;20037;-88
2022/09/13 08:59:50;;;;;;;6.00;2.92;;;;;;;31.55;37.25;100352.53;5009987;28;20056;-88
2022/09/13 09:02:34;;;;;;;15.88;2.85;;;;;;;31.74;37.63;100358.69;5002935;28;20044;-85
2022/09/13 09:05:21;;;;;;;9.27;2.47;;;;;;;32.29;34.88;100373.13;5009262;28;20022;-87
2022/09/13 09:08:27;;;;;;;11.02;2.50;;;;;;;32.14;35.51;100373.50;5015872;28;20034;-88
2022/09/13 09:10:55;;;;;;;6.57;2.15;;;;;;;31.64;37.44;100370.69;4982689;28;20038;-87
2022/09/13 09:13:55;;;;;;;6.40;2.20;;;;;;;31.77;36.41;100363.56;5014720;28;20030;-87
2022/09/13 09:16:44;;;;;;;9.20;2.20;;;;;;;31.64;37.01;100372.63;5003783;28;20038;-86
2022/09/13 09:19:18;;;;;;;4.00;1.98;;;;;;;31.81;36.02;100361.03;5013014;28;20030;-86
2022/09/13 09:21:48;;;;;;;15.77;2.60;;;;;;;32.38;35.65;100354.00;5007648;28;20413;-85
2022/09/13 09:24:21;;;;;;;9.10;2.22;;;;;;;32.68;35.89;100345.06;5010595;28;20061;-86
2022/09/13 09:26:47;;;;;;;9.73;2.38;;;;;;;32.10;35.63;100342.31;5005538;28;20042;-85
2022/09/13 09:29:32;;;;;;;8.23;2.20;;;;;;;32.22;35.49;100337.91;5012933;28;20041;-85
2022/09/13 09:32:38;;;;;;;12.25;2.65;;;;;;;31.73;36.23;100335.97;5011467;28;20686;-85
2022/09/13 09:35:09;;;;;;;7.32;2.38;;;;;;;31.86;35.87;100323.34;5009537;28;20046;-86
2022/09/13 09:37:36;;;;;;;17.42;3.20;;;;;;;32.04;35.16;100318.84;5018610;28;20042;-87
2022/09/13 09:40:07;;;;;;;7.57;2.35;;;;;;;32.26;35.82;100311.47;5017865;28;20085;-90
2022/09/13 09:42:53;;;;;;;8.67;2.47;;;;;;;32.97;34.22;100312.44;4995096;28;20501;-87
2022/09/13 09:45:32;;;;;;;11.00;2.45;;;;;;;33.07;34.20;100314.91;5010017;28;20111;-88
2022/09/13 09:48:08;;;;;;;14.73;3.20;;;;;;;32.86;34.07;100308.34;5011567;28;20473;-89
2022/09/13 09:50:42;;;;;;;14.82;2.95;;;;;;;33.36;33.59;100291.63;5017291;28;20042;-89
2022/09/13 09:53:24;;;;;;;8.93;2.97;;;;;;;33.58;33.26;100297.00;5010572;28;20069;-90
2022/09/13 09:55:59;;;;;;;10.05;2.65;;;;;;;33.76;32.85;100305.00;5005959;28;20030;-87
2022/09/13 09:58:54;;;;;;;13.65;3.30;;;;;;;33.59;33.45;100309.63;4993694;28;20064;-87
2022/09/13 10:01:25;;;;;;;7.63;1.65;;;;;;;33.33;33.23;100301.31;4955556;28;20142;-89
2022/09/13 10:04:11;;;;;;;8.18;2.00;;;;;;;33.98;31.72;100292.22;4953492;28;20077;-90
2022/09/13 10:06:39;;;;;;;13.07;3.17;;;;;;;33.05;33.21;100289.69;4942966;28;20058;-90
2022/09/13 10:09:25;;;;;;;9.07;3.00;;;;;;;33.80;31.95;100304.34;4971572;28;20043;-90
2022/09/13 10:11:58;;;;;;;13.07;2.90;;;;;;;34.00;31.62;100293.53;4996447;28;20046;-91
2022/09/13 10:14:45;;;;;;;11.45;2.92;;;;;;;33.86;31.92;100297.56;5001540;28;20065;-87
2022/09/13 10:17:23;;;;;;;12.90;3.55;;;;;;;33.73;32.14;100293.84;4993787;28;20026;-89
2022/09/13 10:20:02;;;;;;;13.20;3.25;;;;;;;33.36;32.76;100292.44;5010185;28;20038;-89
2022/09/13 10:22:29;;;;;;;11.80;2.53;;;;;;;34.77;31.10;100304.47;5004744;28;20046;-88
2022/09/13 10:24:54;;;;;;;12.00;2.90;;;;;;;35.29;30.55;100296.06;5011125;28;20040;-88
2022/09/13 10:27:28;;;;;;;11.88;2.45;;;;;;;35.08;30.07;100289.63;5001799;28;20038;-90
2022/09/13 10:29:58;;;;;;;8.02;2.70;;;;;;;34.57;30.48;100290.59;5012337;28;20026;-90
2022/09/13 10:32:26;;;;;;;9.13;2.70;;;;;;;34.67;30.63;100293.03;5008249;28;20061;-89
2022/09/13 10:34:59;;;;;;;12.32;3.40;;;;;;;34.35;31.08;100293.53;5002732;28;20041;-87
2022/09/13 10:37:32;;;;;;;11.23;3.70;;;;;;;34.90;29.99;100288.91;5017081;28;20038;-88
2022/09/13 10:40:04;;;;;;;12.60;4.05;;;;;;;34.99;29.93;100286.13;5009367;28;20022;-84
2022/09/13 10:42:30;;;;;;;9.43;4.13;;;;;;;34.97;29.98;100289.19;5006969;28;20038;-86
2022/09/13 10:45:03;;;;;;;9.65;2.90;;;;;;;35.49;28.86;100283.47;5016082;28;20082;-83
2022/09/13 10:47:43;;;;;;;11.45;3.22;;;;;;;35.32;29.17;100270.59;5014041;28;20038;-83
2022/09/13 10:50:24;;;;;;;8.10;2.90;;;;;;;35.26;28.98;100269.97;5015171;28;20036;-82
2022/09/13 10:52:52;;;;;;;15.75;3.90;;;;;;;35.44;28.73;100262.41;5015988;28;20032;-82
2022/09/13 10:55:18;;;;;;;16.20;3.30;;;;;;;34.24;30.87;100255.34;5010529;28;20041;-85
2022/09/13 10:58:01;;;;;;;18.65;3.67;;;;;;;34.28;30.57;100252.75;5020613;28;20034;-82
2022/09/13 11:00:56;;;;;;;8.43;2.78;;;;;;;34.58;30.18;100250.91;5014549;28;20508;-83
2022/09/13 11:03:56;;;;;;;8.52;2.40;;;;;;;34.63;29.66;100245.28;4984978;28;20053;-82
2022/09/13 11:06:35;;;;;;;9.57;2.88;;;;;;;35.13;28.76;100248.94;5007924;28;20382;-82
2022/09/13 11:09:18;;;;;;;10.00;2.28;;;;;;;34.91;28.91;100240.94;4967447;28;1170942;-81
2022/09/13 11:11:57;;;;;;;6.78;2.15;;;;;;;35.50;28.27;100249.25;5021845;28;20029;-85
2022/09/13 11:14:28;;;;;;;8.95;2.20;;;;;;;35.28;28.48;100229.09;5009770;28;20038;-85
2022/09/13 11:16:57;;;;;;;6.72;1.85;;;;;;;36.02;27.74;100236.69;5015262;28;20572;-83
2022/09/13 11:19:35;;;;;;;7.68;2.75;;;;;;;36.20;26.85;100231.81;5015107;28;20026;-83
2022/09/13 11:22:15;;;;;;;21.83;2.97;;;;;;;35.98;27.94;100227.47;5004003;28;20042;-85
2022/09/13 11:25:01;;;;;;;11.40;2.13;;;;;;;36.27;27.43;100229.31;5011258;28;20777;-84
2022/09/13 11:27:36;;;;;;;9.80;2.17;;;;;;;36.68;26.14;100225.66;5013372;28;20034;-84
2022/09/13 11:30:14;;;;;;;14.80;2.40;;;;;;;36.59;26.63;100211.16;5014530;28;20029;-85
2022/09/13 11:32:57;;;;;;;8.57;2.05;;;;;;;35.77;27.29;100212.88;5010302;28;20045;-85
2022/09/13 11:35:58;;;;;;;11.20;2.88;;;;;;;35.76;27.51;100216.81;5015158;28;20504;-83
2022/09/13 11:38:51;;;;;;;11.32;2.25;;;;;;;35.41;27.81;100209.88;4994833;28;20085;-84
2022/09/13 11:41:49;;;;;;;6.10;2.00;;;;;;;35.20;28.53;100204.38;5018834;28;20425;-83
2022/09/13 11:44:36;;;;;;;12.63;3.28;;;;;;;35.71;27.87;100209.53;5010274;28;20116;-83
2022/09/13 11:47:30;;;;;;;14.25;3.30;;;;;;;35.81;27.73;100197.28;5029215;28;20040;-83
2022/09/13 11:49:58;;;;;;;8.07;2.95;;;;;;;34.91;28.75;100198.81;5020572;28;20030;-82
2022/09/13 11:52:56;;;;;;;7.38;2.80;;;;;;;33.61;31.03;100186.47;5023825;28;20038;-80
2022/09/13 11:55:29;;;;;;;7.28;2.55;;;;;;;32.88;32.08;100189.97;5013867;28;20037;-82
2022/09/13 11:57:59;;;;;;;13.30;2.53;;;;;;;32.18;33.21;100183.31;5014919;28;20076;-83
2022/09/13 12:00:34;;;;;;;8.38;2.60;;;;;;;31.51;34.23;100173.44;5004495;28;20030;-86